Time;durP1;ratioP1;P1;durP2;ratioP2;P2;SDS_P1;SDS_P2;PMS_P1;PMS_P2;Temp;Humidity;BMP_temperature;BMP_pressure;BME280_temperature;BME280_humidity;BME280_pressure;Samples;Min_cycle;Max_cycle;Signal;HPM_P1;HPM_P2
2023/07/11 00:01:36;;;;;;;8.18;5.28;;;;;;;;;;5058457;28;20253;-62
2023/07/11 00:04:05;;;;;;;6.50;4.40;;;;;;;;;;5039653;28;20207;-62
2023/07/11 00:06:33;;;;;;;5.47;4.68;;;;;;;;;;5039945;28;20203;-63
2023/07/11 00:09:01;;;;;;;6.72;4.35;;;;;;;;;;5038647;28;20214;-63
2023/07/11 00:11:29;;;;;;;4.82;4.15;;;;;;;;;;5038460;28;20721;-63
2023/07/11 00:13:59;;;;;;;9.18;5.43;;;;;;;;;;5038470;28;20290;-62
2023/07/11 00:16:27;;;;;;;7.03;4.78;;;;;;;;;;5038248;28;20223;-63
2023/07/11 00:18:55;;;;;;;4.68;4.28;;;;;;;;;;5038557;28;20210;-62
2023/07/11 00:21:24;;;;;;;6.60;4.78;;;;;;;;;;5038103;28;20311;-62
2023/07/11 00:23:52;;;;;;;6.75;4.95;;;;;;;;;;5038508;28;20203;-62
2023/07/11 00:26:19;;;;;;;22.88;18.52;;;;;;;;;;5038136;28;20203;-63
2023/07/11 00:28:47;;;;;;;9.60;8.23;;;;;;;;;;5038091;28;20207;-63
2023/07/11 00:31:15;;;;;;;7.68;5.25;;;;;;;;;;5038071;28;20310;-62
2023/07/11 00:33:43;;;;;;;5.00;4.50;;;;;;;;;;5037799;28;20285;-63
2023/07/11 00:36:10;;;;;;;6.38;4.85;;;;;;;;;;5037739;28;20262;-62
2023/07/11 00:38:40;;;;;;;5.95;4.53;;;;;;;;;;5037963;28;20217;-62
2023/07/11 00:41:08;;;;;;;5.90;4.63;;;;;;;;;;5047808;28;20290;-62
2023/07/11 00:43:36;;;;;;;8.75;5.20;;;;;;;;;;5037585;28;20249;-63
2023/07/11 00:46:11;;;;;;;6.82;5.15;;;;;;;;;;5037871;28;20206;-62
2023/07/11 00:48:40;;;;;;;6.43;4.70;;;;;;;;;;5037938;28;20206;-62
2023/07/11 00:51:09;;;;;;;11.13;5.00;;;;;;;;;;5037508;28;20668;-62
2023/07/11 00:53:39;;;;;;;5.90;4.57;;;;;;;;;;5037701;28;20211;-62
2023/07/11 00:56:09;;;;;;;7.57;5.20;;;;;;;;;;5037841;28;20227;-62
2023/07/11 00:58:38;;;;;;;6.50;4.57;;;;;;;;;;5037745;28;20207;-63
2023/07/11 01:01:06;;;;;;;8.00;5.35;;;;;;;;;;5045351;28;20659;-62
2023/07/11 01:03:34;;;;;;;7.18;5.50;;;;;;;;;;5042800;28;20241;-63
2023/07/11 01:06:02;;;;;;;8.25;5.20;;;;;;;;;;5039533;28;20265;-62
2023/07/11 01:08:30;;;;;;;5.68;5.10;;;;;;;;;;5037790;28;20215;-63
2023/07/11 01:10:57;;;;;;;8.68;5.57;;;;;;;;;;5037833;28;20318;-63
2023/07/11 01:13:27;;;;;;;8.07;4.95;;;;;;;;;;5037529;28;20979;-62
2023/07/11 01:15:55;;;;;;;7.60;5.53;;;;;;;;;;5037736;28;20227;-62
2023/07/11 01:18:23;;;;;;;11.43;6.03;;;;;;;;;;5037506;28;20217;-62
2023/07/11 01:20:50;;;;;;;5.22;4.65;;;;;;;;;;5037819;28;20313;-62
2023/07/11 01:23:21;;;;;;;9.10;5.40;;;;;;;;;;5037651;28;20203;-63
2023/07/11 01:25:49;;;;;;;5.05;4.32;;;;;;;;;;5037874;28;20544;-62
2023/07/11 01:28:17;;;;;;;8.32;5.22;;;;;;;;;;5037315;28;20221;-62
2023/07/11 01:30:44;;;;;;;7.18;5.20;;;;;;;;;;5037767;28;20322;-62
2023/07/11 01:33:12;;;;;;;6.40;5.28;;;;;;;;;;5037090;28;20254;-63
2023/07/11 01:35:40;;;;;;;10.80;5.00;;;;;;;;;;5037350;28;20203;-63
2023/07/11 01:38:08;;;;;;;6.18;5.25;;;;;;;;;;5037228;28;20207;-63
2023/07/11 01:40:37;;;;;;;8.20;5.05;;;;;;;;;;5046273;28;20218;-63
2023/07/11 01:43:04;;;;;;;5.15;4.65;;;;;;;;;;5037590;28;20575;-63
2023/07/11 01:45:32;;;;;;;6.25;4.97;;;;;;;;;;5037279;28;20613;-63
2023/07/11 01:48:00;;;;;;;6.15;5.32;;;;;;;;;;5037370;28;20659;-63
2023/07/11 01:50:28;;;;;;;7.03;4.32;;;;;;;;;;5037452;28;20227;-63
2023/07/11 01:52:55;;;;;;;7.03;5.05;;;;;;;;;;5044278;28;20213;-63
2023/07/11 01:55:23;;;;;;;6.00;5.40;;;;;;;;;;5057318;28;20214;-63
2023/07/11 01:57:52;;;;;;;6.68;4.95;;;;;;;;;;5060447;28;20290;-63
2023/07/11 02:00:20;;;;;;;7.28;5.90;;;;;;;;;;5060881;28;20230;-63
2023/07/11 02:02:48;;;;;;;8.13;4.90;;;;;;;;;;5052372;28;20203;-63
2023/07/11 02:05:16;;;;;;;6.15;5.13;;;;;;;;;;5042741;28;20206;-63
2023/07/11 02:07:44;;;;;;;9.30;5.10;;;;;;;;;;5041061;28;20241;-63
2023/07/11 02:10:11;;;;;;;5.65;5.10;;;;;;;;;;5040802;28;20811;-63
2023/07/11 02:12:39;;;;;;;6.22;4.78;;;;;;;;;;5041019;28;20647;-63
2023/07/11 02:15:09;;;;;;;6.45;5.03;;;;;;;;;;5040671;28;20233;-63
2023/07/11 02:17:37;;;;;;;8.15;5.13;;;;;;;;;;5040359;28;20227;-63
2023/07/11 02:20:06;;;;;;;5.47;4.68;;;;;;;;;;5040658;28;20306;-63
2023/07/11 02:22:33;;;;;;;6.45;5.45;;;;;;;;;;5040365;28;20207;-62
2023/07/11 02:25:01;;;;;;;10.57;5.50;;;;;;;;;;5040647;28;20213;-63
2023/07/11 02:27:29;;;;;;;8.32;5.55;;;;;;;;;;5040699;28;20209;-63
2023/07/11 02:29:57;;;;;;;7.53;5.68;;;;;;;;;;5040546;28;20702;-63
2023/07/11 02:32:26;;;;;;;7.43;6.03;;;;;;;;;;5040215;28;20235;-63
2023/07/11 02:34:55;;;;;;;9.70;5.65;;;;;;;;;;5040531;28;20211;-63
2023/07/11 02:37:23;;;;;;;8.05;5.57;;;;;;;;;;5040158;28;20261;-63
2023/07/11 02:39:51;;;;;;;6.70;5.13;;;;;;;;;;5042950;28;20259;-63
2023/07/11 02:42:19;;;;;;;6.65;5.75;;;;;;;;;;5046798;28;20215;-63
2023/07/11 02:44:46;;;;;;;9.93;5.28;;;;;;;;;;5047297;28;20206;-63
2023/07/11 02:47:14;;;;;;;9.75;6.40;;;;;;;;;;5059926;28;20203;-63
2023/07/11 02:49:43;;;;;;;7.55;5.78;;;;;;;;;;5059866;28;20640;-63
2023/07/11 02:52:11;;;;;;;8.57;6.22;;;;;;;;;;5059799;28;20214;-63
2023/07/11 02:54:39;;;;;;;6.03;5.43;;;;;;;;;;5060125;28;20662;-62
2023/07/11 02:57:08;;;;;;;8.18;5.70;;;;;;;;;;5059906;28;20250;-63
2023/07/11 02:59:36;;;;;;;6.50;5.85;;;;;;;;;;5059809;28;20588;-63
2023/07/11 03:02:04;;;;;;;5.97;5.38;;;;;;;;;;5059596;28;20206;-63
2023/07/11 03:04:32;;;;;;;10.40;5.40;;;;;;;;;;5060089;28;20214;-63
2023/07/11 03:07:01;;;;;;;9.57;5.90;;;;;;;;;;5042479;28;20219;-63
2023/07/11 03:09:32;;;;;;;6.45;5.78;;;;;;;;;;5039573;28;20207;-63
2023/07/11 03:11:59;;;;;;;7.80;5.32;;;;;;;;;;5039938;28;20326;-63
2023/07/11 03:14:27;;;;;;;8.40;6.03;;;;;;;;;;5039549;28;20234;-62
2023/07/11 03:16:55;;;;;;;8.63;5.57;;;;;;;;;;5039356;28;20318;-63
2023/07/11 03:19:23;;;;;;;9.18;6.25;;;;;;;;;;5039506;28;20211;-63
2023/07/11 03:25:14;;;;;;;6.82;4.88;;;;;;;;;;5039447;28;20194;-63
2023/07/11 03:27:42;;;;;;;8.82;6.35;;;;;;;;;;5039493;28;20211;-63
2023/07/11 03:30:10;;;;;;;7.45;5.68;;;;;;;;;;5039198;28;20270;-62
2023/07/11 03:32:37;;;;;;;7.97;5.30;;;;;;;;;;5038890;28;20243;-62
2023/07/11 03:35:05;;;;;;;7.00;6.05;;;;;;;;;;5039405;28;20202;-63
2023/07/11 03:37:33;;;;;;;11.63;5.82;;;;;;;;;;5038857;28;20231;-63
2023/07/11 03:40:01;;;;;;;8.65;5.65;;;;;;;;;;5042979;28;20222;-63
2023/07/11 03:42:30;;;;;;;11.98;6.35;;;;;;;;;;5044585;28;20767;-62
2023/07/11 03:44:58;;;;;;;8.05;5.57;;;;;;;;;;5038916;28;20212;-62
2023/07/11 03:47:26;;;;;;;7.65;5.43;;;;;;;;;;5038797;28;20230;-62
2023/07/11 03:49:54;;;;;;;11.98;5.70;;;;;;;;;;5039093;28;20227;-62
2023/07/11 03:52:21;;;;;;;8.90;5.82;;;;;;;;;;5038615;28;20219;-62
2023/07/11 03:54:49;;;;;;;7.20;5.18;;;;;;;;;;5039057;28;20210;-62
2023/07/11 03:57:17;;;;;;;10.18;5.18;;;;;;;;;;5038502;28;20698;-62
2023/07/11 03:59:47;;;;;;;9.80;6.05;;;;;;;;;;5047992;28;20211;-62
2023/07/11 04:02:14;;;;;;;7.53;5.40;;;;;;;;;;5054168;28;20233;-62
2023/07/11 04:04:43;;;;;;;8.20;5.50;;;;;;;;;;5038825;28;20204;-62
2023/07/11 04:07:11;;;;;;;8.05;5.57;;;;;;;;;;5040809;28;20266;-62
2023/07/11 04:09:40;;;;;;;10.73;5.88;;;;;;;;;;5038761;28;20207;-62
2023/07/11 04:12:08;;;;;;;8.45;5.80;;;;;;;;;;5038626;28;20274;-62
2023/07/11 04:14:36;;;;;;;8.60;5.30;;;;;;;;;;5038347;28;20294;-61
2023/07/11 04:17:05;;;;;;;12.73;6.10;;;;;;;;;;5038326;28;20214;-61
2023/07/11 04:19:33;;;;;;;7.35;6.07;;;;;;;;;;5037445;28;20235;-62
2023/07/11 04:22:00;;;;;;;12.63;6.00;;;;;;;;;;5038385;28;20211;-62
2023/07/11 04:24:28;;;;;;;8.70;6.00;;;;;;;;;;5038499;28;20240;-61
2023/07/11 04:26:56;;;;;;;10.57;6.53;;;;;;;;;;5044864;28;20202;-62
2023/07/11 04:29:24;;;;;;;8.53;5.53;;;;;;;;;;5057925;28;20213;-61
2023/07/11 04:31:51;;;;;;;9.37;5.87;;;;;;;;;;5057665;28;20214;-62
2023/07/11 04:34:21;;;;;;;6.67;5.80;;;;;;;;;;5058336;28;20209;-61
2023/07/11 04:36:48;;;;;;;11.20;6.93;;;;;;;;;;5058084;28;20204;-62
2023/07/11 04:39:16;;;;;;;10.60;6.43;;;;;;;;;;5057950;28;20260;-61
2023/07/11 04:41:44;;;;;;;7.63;5.90;;;;;;;;;;5049478;28;20233;-62
2023/07/11 04:44:12;;;;;;;11.07;5.97;;;;;;;;;;5037952;28;20214;-62
2023/07/11 04:46:39;;;;;;;7.43;5.50;;;;;;;;;;5037708;28;20204;-62
2023/07/11 04:49:07;;;;;;;8.00;6.13;;;;;;;;;;5037965;28;20207;-61
2023/07/11 04:51:36;;;;;;;7.55;5.93;;;;;;;;;;5037963;28;20229;-62
2023/07/11 04:54:04;;;;;;;8.23;5.78;;;;;;;;;;5037616;28;20300;-61
2023/07/11 04:56:32;;;;;;;7.93;5.38;;;;;;;;;;5038021;28;20208;-62
2023/07/11 04:59:00;;;;;;;11.32;7.03;;;;;;;;;;5040696;28;20238;-61
2023/07/11 05:01:27;;;;;;;10.00;5.93;;;;;;;;;;5057206;28;20228;-62
2023/07/11 05:03:55;;;;;;;7.18;5.82;;;;;;;;;;5040103;28;20290;-62
2023/07/11 05:06:23;;;;;;;10.07;6.45;;;;;;;;;;5039724;28;20217;-63
2023/07/11 05:08:52;;;;;;;9.75;6.38;;;;;;;;;;5037534;28;20210;-63
2023/07/11 05:11:21;;;;;;;9.68;7.45;;;;;;;;;;5037796;28;20234;-63
2023/07/11 05:13:51;;;;;;;8.65;6.25;;;;;;;;;;5037498;28;20586;-63
2023/07/11 05:16:20;;;;;;;14.25;6.18;;;;;;;;;;5037631;28;20260;-62
2023/07/11 05:18:49;;;;;;;7.55;6.10;;;;;;;;;;5044601;28;20712;-63
2023/07/11 05:21:18;;;;;;;6.97;5.80;;;;;;;;;;5057364;28;20226;-62
2023/07/11 05:23:45;;;;;;;8.75;5.75;;;;;;;;;;5057400;28;20234;-63
2023/07/11 05:26:15;;;;;;;11.98;5.78;;;;;;;;;;5057711;28;20207;-63
2023/07/11 05:28:43;;;;;;;7.47;6.20;;;;;;;;;;5057577;28;20662;-62
2023/07/11 05:31:11;;;;;;;7.82;5.93;;;;;;;;;;5059213;28;20234;-63
2023/07/11 05:33:38;;;;;;;10.65;6.45;;;;;;;;;;5061222;28;20266;-63
2023/07/11 05:36:13;;;;;;;10.88;6.85;;;;;;;;;;5061085;28;20206;-63
2023/07/11 05:38:41;;;;;;;10.73;5.88;;;;;;;;;;5061629;28;20610;-63
2023/07/11 05:41:08;;;;;;;9.32;6.00;;;;;;;;;;5057216;28;20254;-63
2023/07/11 05:43:38;;;;;;;10.50;6.60;;;;;;;;;;5041515;28;20214;-63
2023/07/11 05:46:05;;;;;;;10.05;6.60;;;;;;;;;;5041484;28;20654;-63
2023/07/11 05:48:33;;;;;;;11.50;6.53;;;;;;;;;;5040922;28;20218;-63
2023/07/11 05:51:02;;;;;;;13.60;6.25;;;;;;;;;;5040764;28;20262;-62
2023/07/11 05:53:30;;;;;;;7.85;6.18;;;;;;;;;;5041055;28;20293;-63
2023/07/11 05:55:58;;;;;;;8.90;6.82;;;;;;;;;;5041153;28;20235;-62
2023/07/11 05:58:26;;;;;;;9.00;6.40;;;;;;;;;;5041002;28;20590;-63
2023/07/11 06:00:56;;;;;;;8.52;6.18;;;;;;;;;;5058579;28;20223;-63
2023/07/11 06:03:24;;;;;;;10.02;6.50;;;;;;;;;;5047263;28;20204;-63
2023/07/11 06:05:53;;;;;;;7.28;5.60;;;;;;;;;;5042835;28;20617;-63
2023/07/11 06:08:20;;;;;;;8.18;6.28;;;;;;;;;;5040948;28;20207;-63
2023/07/11 06:10:48;;;;;;;8.40;5.75;;;;;;;;;;5040822;28;20239;-63
2023/07/11 06:13:16;;;;;;;10.07;5.85;;;;;;;;;;5040882;28;20219;-62
2023/07/11 06:15:43;;;;;;;13.85;6.25;;;;;;;;;;5040625;28;20212;-63
2023/07/11 06:18:12;;;;;;;8.43;6.10;;;;;;;;;;5040301;28;20610;-62
2023/07/11 06:20:40;;;;;;;8.18;5.93;;;;;;;;;;5040728;28;20233;-63
2023/07/11 06:23:08;;;;;;;11.05;6.38;;;;;;;;;;5040595;28;20269;-62
2023/07/11 06:25:36;;;;;;;9.40;6.57;;;;;;;;;;5040845;28;20204;-62
2023/07/11 06:28:04;;;;;;;10.45;6.20;;;;;;;;;;5040588;28;20211;-62
2023/07/11 06:30:32;;;;;;;8.10;6.82;;;;;;;;;;5040264;28;20227;-63
2023/07/11 06:32:59;;;;;;;12.77;6.65;;;;;;;;;;5040044;28;20237;-60
2023/07/11 06:35:29;;;;;;;8.95;5.80;;;;;;;;;;5040471;28;20203;-60
2023/07/11 06:37:57;;;;;;;14.35;7.07;;;;;;;;;;5040226;28;20215;-61
2023/07/11 06:40:25;;;;;;;9.48;6.05;;;;;;;;;;5047319;28;20222;-61
2023/07/11 06:42:53;;;;;;;8.98;6.50;;;;;;;;;;5041684;28;20212;-62
2023/07/11 06:45:21;;;;;;;10.98;5.45;;;;;;;;;;5040075;28;20215;-61
2023/07/11 06:47:48;;;;;;;11.70;6.63;;;;;;;;;;5039967;28;20207;-62
2023/07/11 06:50:16;;;;;;;7.18;5.95;;;;;;;;;;5040160;28;20224;-61
2023/07/11 06:52:47;;;;;;;8.48;5.68;;;;;;;;;;5039788;28;20211;-62
2023/07/11 06:55:15;;;;;;;12.48;5.60;;;;;;;;;;5039705;28;20290;-63
2023/07/11 06:57:43;;;;;;;11.63;6.32;;;;;;;;;;5046694;28;20207;-63
2023/07/11 07:00:12;;;;;;;9.60;5.70;;;;;;;;;;5059418;28;20602;-60
2023/07/11 07:02:40;;;;;;;11.57;6.22;;;;;;;;;;5059674;28;20780;-61
2023/07/11 07:05:08;;;;;;;10.38;5.95;;;;;;;;;;5058873;28;20232;-62
2023/07/11 07:07:36;;;;;;;14.43;6.00;;;;;;;;;;5039818;28;20238;-63
2023/07/11 07:10:05;;;;;;;11.88;6.50;;;;;;;;;;5039756;28;20223;-62
2023/07/11 07:12:33;;;;;;;10.93;6.47;;;;;;;;;;5039959;28;20214;-62
2023/07/11 07:15:01;;;;;;;10.75;5.97;;;;;;;;;;5039790;28;20218;-62
2023/07/11 07:17:29;;;;;;;10.65;6.15;;;;;;;;;;5039474;28;20207;-63
2023/07/11 07:19:56;;;;;;;10.20;6.22;;;;;;;;;;5039222;28;20658;-63
2023/07/11 07:22:24;;;;;;;7.88;6.53;;;;;;;;;;5039260;28;20203;-63
2023/07/11 07:24:52;;;;;;;14.52;6.15;;;;;;;;;;5039388;28;20238;-63
2023/07/11 07:27:21;;;;;;;9.57;6.00;;;;;;;;;;5039363;28;20203;-63
2023/07/11 07:29:55;;;;;;;10.52;7.00;;;;;;;;;;5039447;28;20219;-63
2023/07/11 07:32:23;;;;;;;11.35;6.50;;;;;;;;;;5038983;28;20303;-63
2023/07/11 07:34:51;;;;;;;10.30;6.85;;;;;;;;;;5039378;28;20674;-62
2023/07/11 07:37:18;;;;;;;9.57;6.40;;;;;;;;;;5039220;28;20214;-63
2023/07/11 07:39:46;;;;;;;16.50;6.50;;;;;;;;;;5041117;28;20239;-63
2023/07/11 07:42:15;;;;;;;9.45;6.47;;;;;;;;;;5046554;28;20207;-62
2023/07/11 07:44:44;;;;;;;9.77;6.32;;;;;;;;;;5045836;28;20277;-63
2023/07/11 07:47:12;;;;;;;12.27;6.82;;;;;;;;;;5058769;28;20294;-63
2023/07/11 07:49:39;;;;;;;10.70;6.28;;;;;;;;;;5059002;28;20652;-63
2023/07/11 07:52:22;;;;;;;11.50;6.35;;;;;;;;;;5058904;28;20241;-63
2023/07/11 07:54:50;;;;;;;7.82;6.10;;;;;;;;;;5059134;28;20642;-62
2023/07/11 07:57:17;;;;;;;9.55;6.72;;;;;;;;;;5058957;28;20210;-63
2023/07/11 07:59:47;;;;;;;9.38;5.70;;;;;;;;;;5058685;28;20317;-62
2023/07/11 08:02:14;;;;;;;12.70;6.45;;;;;;;;;;5054475;28;20207;-63
2023/07/11 08:04:42;;;;;;;13.77;5.90;;;;;;;;;;5038982;28;20293;-63
2023/07/11 08:07:10;;;;;;;11.98;5.88;;;;;;;;;;5040384;28;20204;-63
2023/07/11 08:09:38;;;;;;;9.38;6.00;;;;;;;;;;5038956;28;20295;-63
2023/07/11 08:12:06;;;;;;;10.65;5.63;;;;;;;;;;5038769;28;20222;-63
2023/07/11 08:14:35;;;;;;;10.27;5.90;;;;;;;;;;5038475;28;20257;-63
2023/07/11 08:17:05;;;;;;;10.10;6.22;;;;;;;;;;5038308;28;20211;-63
2023/07/11 08:19:32;;;;;;;10.75;5.57;;;;;;;;;;5038519;28;20257;-63
2023/07/11 08:22:00;;;;;;;7.72;6.00;;;;;;;;;;5038445;28;20215;-63
2023/07/11 08:24:28;;;;;;;10.82;5.97;;;;;;;;;;5038158;28;20211;-63
2023/07/11 08:26:56;;;;;;;13.50;6.32;;;;;;;;;;5038501;28;20215;-62
2023/07/11 08:29:24;;;;;;;12.00;6.47;;;;;;;;;;5038052;28;20205;-63
2023/07/11 08:31:58;;;;;;;15.60;6.68;;;;;;;;;;5038030;28;20211;-63
2023/07/11 08:34:27;;;;;;;16.17;7.28;;;;;;;;;;5038026;28;20551;-64
2023/07/11 08:36:55;;;;;;;9.32;5.47;;;;;;;;;;5038278;28;20275;-63
2023/07/11 08:39:22;;;;;;;17.58;5.88;;;;;;;;;;5038154;28;20218;-63
2023/07/11 08:41:51;;;;;;;14.43;6.18;;;;;;;;;;5047724;28;20223;-63
2023/07/11 08:44:23;;;;;;;15.32;6.53;;;;;;;;;;5038108;28;20211;-63
2023/07/11 08:46:52;;;;;;;7.50;5.47;;;;;;;;;;5037984;28;20207;-63
2023/07/11 08:49:23;;;;;;;7.85;5.03;;;;;;;;;;5037717;28;20207;-63
2023/07/11 08:51:54;;;;;;;11.77;6.57;;;;;;;;;;5038056;28;20217;-64
2023/07/11 08:54:25;;;;;;;11.95;6.13;;;;;;;;;;5037929;28;20573;-63
2023/07/11 08:56:53;;;;;;;12.73;5.68;;;;;;;;;;5037952;28;20298;-63
2023/07/11 08:59:22;;;;;;;13.77;6.00;;;;;;;;;;5044391;28;20293;-63
2023/07/11 09:01:53;;;;;;;11.25;5.57;;;;;;;;;;5056616;28;20222;-63
2023/07/11 09:04:23;;;;;;;12.52;5.32;;;;;;;;;;5037918;28;20714;-63
2023/07/11 09:06:55;;;;;;;9.70;5.50;;;;;;;;;;5039303;28;20207;-63
2023/07/11 09:09:23;;;;;;;9.95;5.00;;;;;;;;;;5037639;28;20235;-63
2023/07/11 09:11:57;;;;;;;16.15;5.65;;;;;;;;;;5037810;28;20267;-63
2023/07/11 09:14:27;;;;;;;10.02;5.43;;;;;;;;;;5037875;28;20225;-63
2023/07/11 09:17:01;;;;;;;9.50;5.10;;;;;;;;;;5037662;28;20286;-63
2023/07/11 09:19:38;;;;;;;11.52;5.63;;;;;;;;;;5037733;28;20211;-61
2023/07/11 09:22:16;;;;;;;11.23;5.65;;;;;;;;;;5044654;28;20206;-64
2023/07/11 09:24:47;;;;;;;12.75;5.30;;;;;;;;;;5057722;28;20210;-63
2023/07/11 09:27:19;;;;;;;10.75;5.40;;;;;;;;;;5057691;28;20234;-63
2023/07/11 09:29:48;;;;;;;11.07;5.65;;;;;;;;;;5057528;28;20226;-63
2023/07/11 09:32:17;;;;;;;14.27;6.70;;;;;;;;;;5057241;28;20237;-63
2023/07/11 09:34:46;;;;;;;81.78;20.50;;;;;;;;;;5057280;28;20211;-63
2023/07/11 09:37:22;;;;;;;42.53;20.52;;;;;;;;;;5057231;28;20285;-63
2023/07/11 09:39:52;;;;;;;44.30;14.65;;;;;;;;;;5057270;28;20237;-63
2023/07/11 09:42:23;;;;;;;13.00;6.07;;;;;;;;;;5044185;28;20211;-63
2023/07/11 09:45:00;;;;;;;8.27;5.97;;;;;;;;;;5037352;28;20661;-63
2023/07/11 09:47:30;;;;;;;12.38;5.18;;;;;;;;;;5036873;28;20261;-63
2023/07/11 09:49:59;;;;;;;10.75;5.68;;;;;;;;;;5037167;28;20231;-63
2023/07/11 09:52:29;;;;;;;13.45;5.65;;;;;;;;;;5037282;28;20212;-63
2023/07/11 09:54:58;;;;;;;10.18;5.18;;;;;;;;;;5037384;28;20215;-63
2023/07/11 09:57:35;;;;;;;17.85;5.38;;;;;;;;;;5037394;28;20206;-63
2023/07/11 10:00:05;;;;;;;11.07;4.47;;;;;;;;;;5048505;28;20589;-63
2023/07/11 10:02:49;;;;;;;8.82;5.70;;;;;;;;;;5037211;28;20286;-63
2023/07/11 10:05:17;;;;;;;8.85;5.00;;;;;;;;;;5039543;28;20217;-61
2023/07/11 10:07:47;;;;;;;10.02;5.97;;;;;;;;;;5037327;28;20211;-63
2023/07/11 10:10:15;;;;;;;13.75;5.53;;;;;;;;;;5037148;28;20314;-63
2023/07/11 10:12:45;;;;;;;12.07;5.35;;;;;;;;;;5037299;28;20211;-61
2023/07/11 10:15:15;;;;;;;13.27;6.15;;;;;;;;;;5037172;28;20215;-62
2023/07/11 10:17:44;;;;;;;31.20;18.35;;;;;;;;;;5038370;28;20207;-62
2023/07/11 10:20:16;;;;;;;9.63;5.47;;;;;;;;;;5040426;28;20277;-61
2023/07/11 10:22:50;;;;;;;10.63;5.05;;;;;;;;;;5040791;28;20653;-62
2023/07/11 10:25:19;;;;;;;10.38;4.82;;;;;;;;;;5040528;28;20854;-62
2023/07/11 10:27:49;;;;;;;8.60;5.50;;;;;;;;;;5041138;28;20219;-63
2023/07/11 10:30:21;;;;;;;11.13;5.35;;;;;;;;;;5040682;28;20235;-63
2023/07/11 10:32:56;;;;;;;9.57;5.28;;;;;;;;;;5039993;28;20590;-63
2023/07/11 10:35:35;;;;;;;12.13;5.70;;;;;;;;;;5040646;28;20242;-63
2023/07/11 10:38:06;;;;;;;11.45;5.03;;;;;;;;;;5040217;28;20211;-62
2023/07/11 10:40:37;;;;;;;9.90;4.55;;;;;;;;;;5048931;28;20595;-63
2023/07/11 10:43:07;;;;;;;9.68;4.80;;;;;;;;;;5041838;28;20290;-63
2023/07/11 10:45:37;;;;;;;10.32;4.93;;;;;;;;;;5040361;28;20617;-63
2023/07/11 10:48:14;;;;;;;11.57;5.03;;;;;;;;;;5040067;28;20203;-63
2023/07/11 10:50:45;;;;;;;11.30;5.15;;;;;;;;;;5040190;28;20314;-63
2023/07/11 10:53:17;;;;;;;7.50;5.13;;;;;;;;;;5040188;28;20290;-63
2023/07/11 10:55:49;;;;;;;10.55;5.40;;;;;;;;;;5040262;28;20215;-62
2023/07/11 10:58:18;;;;;;;14.48;5.55;;;;;;;;;;5040202;28;20203;-62
2023/07/11 11:00:51;;;;;;;8.00;5.03;;;;;;;;;;5045051;28;20222;-63
2023/07/11 11:03:26;;;;;;;15.18;5.18;;;;;;;;;;5047406;28;20210;-63
2023/07/11 11:05:57;;;;;;;10.48;5.18;;;;;;;;;;5041872;28;20290;-63
2023/07/11 11:08:29;;;;;;;10.77;5.50;;;;;;;;;;5039958;28;20270;-62
2023/07/11 11:11:01;;;;;;;16.02;5.22;;;;;;;;;;5039923;28;20259;-63
2023/07/11 11:13:33;;;;;;;14.25;5.47;;;;;;;;;;5039600;28;20237;-62
2023/07/11 11:16:05;;;;;;;10.38;5.00;;;;;;;;;;5039597;28;20265;-63
2023/07/11 11:18:41;;;;;;;13.30;5.25;;;;;;;;;;5039458;28;20213;-62
2023/07/11 11:21:13;;;;;;;11.52;5.10;;;;;;;;;;5039270;28;20371;-63
2023/07/11 11:23:57;;;;;;;9.40;5.30;;;;;;;;;;5039768;28;20651;-62
2023/07/11 11:26:29;;;;;;;11.52;4.97;;;;;;;;;;5039714;28;20233;-63
2023/07/11 11:29:01;;;;;;;11.07;5.07;;;;;;;;;;5038973;28;20549;-63
2023/07/11 11:31:30;;;;;;;9.20;4.88;;;;;;;;;;5039215;28;20227;-63
2023/07/11 11:34:07;;;;;;;12.90;5.43;;;;;;;;;;5039134;28;20243;-62
2023/07/11 11:36:40;;;;;;;12.75;5.25;;;;;;;;;;5046026;28;20213;-63
2023/07/11 11:39:15;;;;;;;12.57;5.32;;;;;;;;;;5059206;28;20650;-62
2023/07/11 11:41:44;;;;;;;14.40;5.07;;;;;;;;;;5050082;28;20234;-63
2023/07/11 11:44:15;;;;;;;10.57;5.00;;;;;;;;;;5038947;28;20370;-63
2023/07/11 11:46:46;;;;;;;13.80;5.47;;;;;;;;;;5038886;28;20215;-63
2023/07/11 11:49:19;;;;;;;7.72;4.10;;;;;;;;;;5039179;28;20207;-63
2023/07/11 11:52:08;;;;;;;7.18;4.72;;;;;;;;;;5038920;28;20207;-63
2023/07/11 11:54:38;;;;;;;10.95;5.45;;;;;;;;;;5039166;28;20214;-63
2023/07/11 11:57:06;;;;;;;14.88;5.05;;;;;;;;;;5039058;28;20299;-63
2023/07/11 11:59:34;;;;;;;7.30;4.28;;;;;;;;;;5046208;28;20314;-63
2023/07/11 12:02:05;;;;;;;11.95;4.90;;;;;;;;;;5054891;28;20578;-63
2023/07/11 12:04:35;;;;;;;13.43;4.50;;;;;;;;;;5039011;28;20246;-63
2023/07/11 12:07:05;;;;;;;9.52;4.40;;;;;;;;;;5040642;28;20663;-63
2023/07/11 12:09:41;;;;;;;13.98;4.35;;;;;;;;;;5038704;28;20210;-63
2023/07/11 12:12:09;;;;;;;7.35;4.55;;;;;;;;;;5038730;28;20582;-63
2023/07/11 12:14:38;;;;;;;10.05;4.65;;;;;;;;;;5038387;28;20218;-63
2023/07/11 12:17:31;;;;;;;6.47;3.60;;;;;;;;;;5038372;28;20207;-63
2023/07/11 12:20:05;;;;;;;12.38;4.90;;;;;;;;;;5038090;28;20281;-63
2023/07/11 12:22:53;;;;;;;7.03;4.47;;;;;;;;;;5038106;28;20638;-63
2023/07/11 12:25:25;;;;;;;10.25;4.80;;;;;;;;;;5038221;28;20246;-63
2023/07/11 12:28:02;;;;;;;11.23;4.50;;;;;;;;;;5038417;28;20249;-63
2023/07/11 12:30:37;;;;;;;11.57;4.30;;;;;;;;;;5038451;28;20258;-63
2023/07/11 12:33:35;;;;;;;11.50;4.22;;;;;;;;;;5037885;28;20237;-63
2023/07/11 12:36:22;;;;;;;12.68;3.83;;;;;;;;;;4996475;28;20208;-61
2023/07/11 12:38:53;;;;;;;12.15;4.28;;;;;;;;;;5034311;28;20257;-62
2023/07/11 12:41:28;;;;;;;9.68;4.28;;;;;;;;;;5046877;28;20302;-62
2023/07/11 12:44:13;;;;;;;17.05;4.90;;;;;;;;;;5040040;28;20207;-64
2023/07/11 12:46:44;;;;;;;13.48;4.97;;;;;;;;;;5039352;28;20293;-64
2023/07/11 12:49:18;;;;;;;11.82;4.53;;;;;;;;;;5039576;28;20215;-64
2023/07/11 12:51:47;;;;;;;15.68;4.68;;;;;;;;;;5044920;28;20215;-65
2023/07/11 12:54:18;;;;;;;12.80;4.50;;;;;;;;;;5038044;28;20207;-63
2023/07/11 12:56:48;;;;;;;14.20;4.82;;;;;;;;;;5037944;28;20213;-62
2023/07/11 12:59:19;;;;;;;10.15;4.60;;;;;;;;;;5042634;28;20342;-64
2023/07/11 13:01:51;;;;;;;7.53;4.50;;;;;;;;;;5057391;28;20313;-65
2023/07/11 13:04:24;;;;;;;14.95;4.90;;;;;;;;;;5049868;28;20207;-63
2023/07/11 13:06:54;;;;;;;11.20;5.05;;;;;;;;;;5039885;28;20207;-64
2023/07/11 13:09:23;;;;;;;16.15;5.97;;;;;;;;;;5037977;28;20211;-65
2023/07/11 13:11:53;;;;;;;9.70;4.97;;;;;;;;;;5037821;28;20203;-64
2023/07/11 13:14:21;;;;;;;10.82;4.93;;;;;;;;;;5037810;28;20207;-63
2023/07/11 13:16:49;;;;;;;10.85;4.93;;;;;;;;;;5037644;28;20211;-64
2023/07/11 13:19:20;;;;;;;13.60;5.30;;;;;;;;;;5037902;28;20218;-64
2023/07/11 13:21:49;;;;;;;13.98;5.32;;;;;;;;;;5037241;28;20314;-64
2023/07/11 13:24:21;;;;;;;8.88;4.32;;;;;;;;;;5037553;28;20253;-64
2023/07/11 13:26:50;;;;;;;13.45;5.32;;;;;;;;;;5037809;28;20613;-65
2023/07/11 13:29:21;;;;;;;10.48;5.15;;;;;;;;;;5037671;28;20207;-66
2023/07/11 13:32:01;;;;;;;7.90;4.28;;;;;;;;;;5036982;28;20223;-66
2023/07/11 13:34:29;;;;;;;12.80;5.65;;;;;;;;;;5037624;28;20633;-65
2023/07/11 13:36:57;;;;;;;11.07;4.88;;;;;;;;;;5037553;28;20275;-65
2023/07/11 13:39:26;;;;;;;18.48;5.38;;;;;;;;;;5037319;28;20607;-65
2023/07/11 13:41:55;;;;;;;14.73;5.22;;;;;;;;;;5046830;28;20295;-65
2023/07/11 13:44:27;;;;;;;8.05;4.93;;;;;;;;;;5037548;28;20215;-65
2023/07/11 13:46:55;;;;;;;12.55;5.50;;;;;;;;;;5037360;28;20211;-66
2023/07/11 13:49:24;;;;;;;9.85;4.78;;;;;;;;;;5037509;28;20222;-65
2023/07/11 13:51:56;;;;;;;12.40;4.90;;;;;;;;;;5039100;28;20207;-65
2023/07/11 13:54:30;;;;;;;16.40;6.00;;;;;;;;;;5041257;28;20222;-65
2023/07/11 13:56:58;;;;;;;14.98;5.85;;;;;;;;;;5041223;28;20207;-65
2023/07/11 13:59:27;;;;;;;11.95;4.72;;;;;;;;;;5047379;28;20298;-65
2023/07/11 14:02:11;;;;;;;11.10;4.68;;;;;;;;;;5057635;28;20198;-65
2023/07/11 14:04:39;;;;;;;12.00;5.38;;;;;;;;;;5041277;28;20242;-65
2023/07/11 14:07:08;;;;;;;10.13;4.68;;;;;;;;;;5042878;28;20294;-65
2023/07/11 14:09:36;;;;;;;12.48;5.43;;;;;;;;;;5041090;28;20203;-64
2023/07/11 14:12:05;;;;;;;14.05;4.60;;;;;;;;;;5040981;28;20207;-64
2023/07/11 14:14:35;;;;;;;11.73;5.10;;;;;;;;;;5040733;28;20211;-64
2023/07/11 14:17:11;;;;;;;14.75;5.78;;;;;;;;;;5040679;28;20257;-65
2023/07/11 14:19:38;;;;;;;11.80;6.00;;;;;;;;;;5040779;28;20211;-65
2023/07/11 14:22:10;;;;;;;15.13;5.70;;;;;;;;;;5047488;28;20210;-66
2023/07/11 14:24:41;;;;;;;11.35;4.50;;;;;;;;;;5060634;28;20241;-66
2023/07/11 14:27:10;;;;;;;12.85;4.65;;;;;;;;;;5060468;28;20305;-66
2023/07/11 14:29:40;;;;;;;14.68;5.13;;;;;;;;;;5064818;28;20209;-65
2023/07/11 14:32:10;;;;;;;9.35;4.45;;;;;;;;;;5069195;28;20240;-65
2023/07/11 14:34:38;;;;;;;12.25;5.65;;;;;;;;;;5065976;28;20684;-66
2023/07/11 14:37:09;;;;;;;12.80;5.40;;;;;;;;;;5063096;28;20255;-65
2023/07/11 14:39:37;;;;;;;10.40;4.78;;;;;;;;;;5052591;28;20199;-62
2023/07/11 14:42:09;;;;;;;12.20;4.75;;;;;;;;;;5048467;28;20235;-64
2023/07/11 14:44:37;;;;;;;14.48;5.95;;;;;;;;;;5054756;28;20235;-64
2023/07/11 14:47:09;;;;;;;11.50;5.00;;;;;;;;;;5059779;28;20685;-64
2023/07/11 14:49:37;;;;;;;16.77;4.85;;;;;;;;;;5059965;28;20238;-64
2023/07/11 14:52:06;;;;;;;11.18;4.88;;;;;;;;;;5059434;28;20206;-64
2023/07/11 14:54:34;;;;;;;11.95;4.82;;;;;;;;;;5060017;28;20233;-64